Time;durP1;ratioP1;P1;durP2;ratioP2;P2;SDS_P1;SDS_P2;PMS_P1;PMS_P2;Temp;Humidity;BMP_temperature;BMP_pressure;BME280_temperature;BME280_humidity;BME280_pressure;Samples;Min_cycle;Max_cycle;Signal;HPM_P1;HPM_P2
2022/07/19 00:01:19;;;;;;;6.32;3.10;;;;;;;21.31;54.41;101709.09;5072880;28;20052;-75
2022/07/19 00:03:46;;;;;;;5.28;2.80;;;;;;;21.28;55.03;101708.41;5072879;28;20507;-75
2022/07/19 00:06:13;;;;;;;6.18;2.88;;;;;;;21.23;54.96;101711.38;5068003;28;20045;-74
2022/07/19 00:08:40;;;;;;;4.47;2.85;;;;;;;21.19;55.21;101715.22;5066714;28;20095;-72
2022/07/19 00:11:08;;;;;;;4.30;2.70;;;;;;;21.14;55.41;101706.59;5072885;28;20448;-71
2022/07/19 00:13:36;;;;;;;3.75;3.00;;;;;;;21.06;55.21;101705.25;5071103;28;20574;-74
2022/07/19 00:16:04;;;;;;;6.05;3.05;;;;;;;21.00;55.79;101704.75;5071020;28;20083;-74
2022/07/19 00:18:32;;;;;;;4.60;3.45;;;;;;;20.92;56.09;101702.53;5071789;28;20043;-74
2022/07/19 00:20:59;;;;;;;6.00;2.85;;;;;;;20.85;55.63;101696.69;5071312;28;20116;-74
2022/07/19 00:23:26;;;;;;;5.55;2.72;;;;;;;20.82;55.80;101702.25;5073061;28;20072;-75
2022/07/19 00:25:53;;;;;;;6.20;3.20;;;;;;;20.78;56.16;101700.69;5071918;28;20045;-72
2022/07/19 00:28:20;;;;;;;4.28;3.10;;;;;;;20.73;56.38;101700.09;5071164;28;20044;-74
2022/07/19 00:30:49;;;;;;;6.95;2.85;;;;;;;20.70;56.54;101701.13;5073046;28;20073;-74
2022/07/19 00:33:17;;;;;;;5.53;2.83;;;;;;;20.68;56.46;101691.44;5081740;28;20140;-75
2022/07/19 00:35:44;;;;;;;3.95;2.97;;;;;;;20.65;56.73;101695.16;5071615;28;20041;-75
2022/07/19 00:38:14;;;;;;;6.50;2.85;;;;;;;20.61;57.45;101686.47;5068636;28;20052;-75
2022/07/19 00:40:42;;;;;;;4.88;2.92;;;;;;;20.58;57.70;101691.16;5068761;28;20033;-75
2022/07/19 00:43:12;;;;;;;8.00;3.15;;;;;;;20.53;58.08;101694.09;5071198;28;20103;-74
2022/07/19 00:45:39;;;;;;;5.88;2.90;;;;;;;20.51;58.23;101692.44;5070538;28;20103;-74
2022/07/19 00:48:07;;;;;;;5.35;3.10;;;;;;;20.47;58.22;101695.31;5068924;28;20067;-75
2022/07/19 00:50:34;;;;;;;4.43;3.03;;;;;;;20.43;57.99;101691.06;5070344;28;20037;-74
2022/07/19 00:53:05;;;;;;;5.85;3.65;;;;;;;20.40;58.08;101685.03;5073136;28;20087;-75
2022/07/19 00:55:38;;;;;;;4.38;3.65;;;;;;;20.37;58.39;101688.78;5069782;28;20088;-75
2022/07/19 00:58:06;;;;;;;5.20;3.53;;;;;;;20.31;58.45;101684.63;5070715;28;20037;-76
2022/07/19 01:00:34;;;;;;;7.65;3.38;;;;;;;20.27;58.49;101687.59;5068070;28;20080;-75
2022/07/19 01:03:02;;;;;;;4.43;3.25;;;;;;;20.23;58.99;101689.56;5071244;28;20095;-75
2022/07/19 01:05:29;;;;;;;4.90;3.28;;;;;;;20.18;58.81;101688.97;5070607;28;20045;-75
2022/07/19 01:07:57;;;;;;;4.28;3.53;;;;;;;20.11;59.16;101677.75;5068623;28;20037;-76
2022/07/19 01:10:26;;;;;;;7.50;3.50;;;;;;;20.07;58.95;101684.25;5069542;28;20043;-76
2022/07/19 01:12:56;;;;;;;8.07;3.58;;;;;;;20.04;59.06;101680.88;5067618;28;20033;-75
2022/07/19 01:15:26;;;;;;;6.82;3.80;;;;;;;20.00;59.26;101681.06;5071804;28;20044;-76
2022/07/19 01:17:55;;;;;;;8.25;3.75;;;;;;;19.95;59.35;101674.22;5069154;28;20081;-76
2022/07/19 01:20:24;;;;;;;6.80;3.45;;;;;;;19.90;59.42;101674.50;5070951;28;20947;-75
2022/07/19 01:22:56;;;;;;;7.82;3.60;;;;;;;19.86;59.53;101683.63;5069394;28;20041;-75
2022/07/19 01:25:27;;;;;;;9.13;3.47;;;;;;;19.82;59.87;101677.56;5071957;28;20041;-75
2022/07/19 01:27:55;;;;;;;4.57;3.10;;;;;;;19.81;60.13;101672.31;5069804;28;20045;-75
2022/07/19 01:30:27;;;;;;;7.82;3.40;;;;;;;19.78;60.53;101681.38;5069441;28;20047;-75
2022/07/19 01:32:56;;;;;;;5.72;3.35;;;;;;;19.78;60.64;101683.16;5070041;28;20037;-75
2022/07/19 01:35:25;;;;;;;7.85;3.92;;;;;;;19.76;60.68;101675.25;5061883;28;20048;-74
2022/07/19 01:37:54;;;;;;;4.78;3.30;;;;;;;19.73;60.75;101683.44;5067197;28;20041;-75
2022/07/19 01:40:23;;;;;;;4.30;3.30;;;;;;;19.70;60.97;101688.94;5070290;28;20069;-74
2022/07/19 01:42:51;;;;;;;7.45;3.45;;;;;;;19.66;61.44;101682.91;5068848;28;20483;-74
2022/07/19 01:45:19;;;;;;;8.35;3.88;;;;;;;19.66;61.39;101679.38;5067726;28;20095;-73
2022/07/19 01:47:47;;;;;;;6.47;4.10;;;;;;;19.71;61.27;101677.31;5066325;28;20045;-74
2022/07/19 01:50:17;;;;;;;10.55;4.22;;;;;;;19.76;61.38;101679.72;5066996;28;20045;-75
2022/07/19 01:52:45;;;;;;;6.50;4.28;;;;;;;19.76;61.52;101679.72;5063774;28;20049;-75
2022/07/19 01:55:19;;;;;;;6.20;4.50;;;;;;;19.69;61.58;101679.19;5071075;28;20041;-73
2022/07/19 01:57:48;;;;;;;13.05;5.05;;;;;;;19.62;61.57;101677.81;5069878;28;20522;-72
2022/07/19 02:00:16;;;;;;;9.93;5.53;;;;;;;19.60;61.50;101677.03;5071175;28;20452;-72
2022/07/19 02:02:44;;;;;;;10.60;5.60;;;;;;;19.54;61.57;101672.88;5062495;28;20124;-72
2022/07/19 02:05:11;;;;;;;8.00;4.72;;;;;;;19.49;61.51;101669.63;5068829;28;20096;-72
2022/07/19 02:07:39;;;;;;;10.05;5.47;;;;;;;19.45;61.70;101668.03;5065518;28;20926;-72
2022/07/19 02:10:08;;;;;;;10.10;5.13;;;;;;;19.42;61.84;101668.22;5071076;28;20466;-72
2022/07/19 02:12:37;;;;;;;9.00;5.10;;;;;;;19.42;62.04;101676.25;5067506;28;20525;-75
2022/07/19 02:15:05;;;;;;;9.30;5.25;;;;;;;19.42;61.93;101670.91;5057870;28;20041;-75
2022/07/19 02:17:33;;;;;;;7.32;4.65;;;;;;;19.41;61.82;101670.03;5067654;28;20139;-75
2022/07/19 02:20:01;;;;;;;8.77;4.68;;;;;;;19.48;61.76;101675.91;5061651;28;20503;-75
2022/07/19 02:22:29;;;;;;;7.07;4.72;;;;;;;19.49;61.35;101675.81;5068747;28;20041;-75
2022/07/19 02:24:56;;;;;;;7.53;4.95;;;;;;;19.50;61.23;101666.00;5071764;28;20500;-72
2022/07/19 02:27:23;;;;;;;10.30;4.78;;;;;;;19.49;61.54;101665.13;5064695;28;20047;-73
2022/07/19 02:29:51;;;;;;;8.32;4.28;;;;;;;19.46;61.35;101656.41;5071733;28;20069;-73
2022/07/19 02:32:18;;;;;;;9.20;3.92;;;;;;;19.42;61.77;101662.88;5068009;28;20127;-73
2022/07/19 02:34:45;;;;;;;7.03;4.38;;;;;;;19.37;61.85;101653.28;5071427;28;20048;-73
2022/07/19 02:37:12;;;;;;;12.05;4.00;;;;;;;19.32;62.04;101655.38;5068170;28;20069;-76
2022/07/19 02:39:39;;;;;;;6.07;4.13;;;;;;;19.27;62.06;101653.88;5069137;28;20054;-75
2022/07/19 02:42:07;;;;;;;10.10;3.97;;;;;;;19.21;62.25;101655.94;5069376;28;20053;-74
2022/07/19 02:44:34;;;;;;;11.38;3.92;;;;;;;19.14;62.35;101651.00;5073362;28;20056;-75
2022/07/19 02:47:01;;;;;;;9.65;3.78;;;;;;;19.09;62.62;101648.56;5088336;28;20045;-75
2022/07/19 02:49:28;;;;;;;5.10;3.60;;;;;;;19.04;63.09;101651.47;5071784;28;20061;-75
2022/07/19 02:51:55;;;;;;;5.85;3.55;;;;;;;18.98;63.33;101651.81;5072882;28;20052;-75
2022/07/19 02:54:22;;;;;;;13.13;3.70;;;;;;;18.95;62.81;101643.97;5073212;28;20041;-75
2022/07/19 02:56:49;;;;;;;8.50;3.70;;;;;;;18.94;62.88;101650.25;5074490;28;20123;-75
2022/07/19 02:59:17;;;;;;;7.70;3.88;;;;;;;18.92;63.19;101644.97;5072390;28;20523;-75
2022/07/19 03:01:44;;;;;;;7.90;3.42;;;;;;;18.89;63.14;101645.13;5073241;28;20136;-75
2022/07/19 03:04:11;;;;;;;5.80;3.50;;;;;;;18.86;63.26;101647.09;5073527;28;20037;-75
2022/07/19 03:06:38;;;;;;;6.15;3.80;;;;;;;18.80;63.38;101642.94;5074710;28;20037;-75
2022/07/19 03:09:05;;;;;;;5.53;3.67;;;;;;;18.78;63.26;101636.81;5072338;28;20500;-75
2022/07/19 03:11:32;;;;;;;9.00;3.67;;;;;;;18.76;63.12;101647.56;5073669;28;20488;-75
2022/07/19 03:14:00;;;;;;;7.78;3.35;;;;;;;18.74;63.13;101637.94;5069110;28;20523;-75
2022/07/19 03:16:27;;;;;;;7.30;3.50;;;;;;;18.72;63.20;101639.81;5072264;28;20123;-75
2022/07/19 03:18:54;;;;;;;5.40;3.78;;;;;;;18.68;62.96;101632.88;5073139;28;20092;-75
2022/07/19 03:21:21;;;;;;;7.22;3.47;;;;;;;18.66;63.08;101640.13;5072336;28;20045;-75
2022/07/19 03:23:49;;;;;;;11.18;3.60;;;;;;;18.65;62.84;101641.06;5072446;28;20107;-75
2022/07/19 03:26:16;;;;;;;4.55;3.17;;;;;;;18.61;62.57;101641.22;5074412;28;20037;-75
2022/07/19 03:28:43;;;;;;;4.60;2.88;;;;;;;18.62;62.49;101642.06;5070222;28;20048;-73
2022/07/19 03:31:10;;;;;;;5.95;2.95;;;;;;;18.60;62.46;101631.47;5072540;28;20082;-74
2022/07/19 03:33:37;;;;;;;6.05;3.30;;;;;;;18.60;62.53;101636.81;5071412;28;20517;-74
2022/07/19 03:36:05;;;;;;;6.40;3.17;;;;;;;18.60;62.38;101633.31;5070172;28;20045;-74
2022/07/19 03:38:33;;;;;;;4.97;3.30;;;;;;;18.60;62.85;101630.63;5069567;28;20068;-74
2022/07/19 03:41:01;;;;;;;5.60;2.97;;;;;;;18.59;62.89;101632.44;5063822;28;20128;-73
2022/07/19 03:43:28;;;;;;;4.47;3.28;;;;;;;18.59;63.08;101637.75;5066283;28;20124;-73
2022/07/19 03:45:56;;;;;;;4.80;3.30;;;;;;;18.58;62.92;101641.38;5064913;28;20108;-73
2022/07/19 03:48:23;;;;;;;6.15;3.20;;;;;;;18.58;62.61;101636.03;5062460;28;20791;-73
2022/07/19 03:50:50;;;;;;;5.10;3.15;;;;;;;18.60;62.76;101639.50;5073832;28;20041;-74
2022/07/19 03:53:17;;;;;;;5.72;3.40;;;;;;;18.60;62.66;101631.47;5072379;28;20076;-73
2022/07/19 03:55:45;;;;;;;4.47;3.28;;;;;;;18.63;62.81;101643.81;5072728;28;20068;-73
2022/07/19 03:58:12;;;;;;;7.38;3.35;;;;;;;18.66;62.70;101640.97;5071312;28;20475;-72
2022/07/19 04:00:39;;;;;;;5.47;3.20;;;;;;;18.68;62.83;101636.44;5071469;28;20041;-72
2022/07/19 04:03:06;;;;;;;4.43;3.00;;;;;;;18.70;62.75;101639.91;5072233;28;20068;-72
2022/07/19 04:05:35;;;;;;;4.82;3.25;;;;;;;18.74;62.59;101643.25;5072385;28;20044;-72
2022/07/19 04:08:02;;;;;;;6.82;3.35;;;;;;;18.79;62.49;101643.88;5073059;28;20081;-72
2022/07/19 04:10:30;;;;;;;4.50;3.10;;;;;;;18.87;62.24;101648.81;5069389;28;20069;-72
2022/07/19 04:12:57;;;;;;;6.85;3.40;;;;;;;18.91;62.09;101656.59;5067584;28;20083;-73
2022/07/19 04:15:31;;;;;;;8.38;3.40;;;;;;;18.99;61.64;101644.66;5071778;28;20148;-73
2022/07/19 04:17:59;;;;;;;4.72;2.92;;;;;;;19.09;61.58;101651.25;5070425;28;20127;-73
2022/07/19 04:20:26;;;;;;;6.05;2.85;;;;;;;19.21;61.42;101647.06;5071537;28;20060;-73
2022/07/19 04:22:53;;;;;;;8.50;3.58;;;;;;;19.33;61.06;101653.53;5072905;28;20085;-74
2022/07/19 04:25:21;;;;;;;5.15;3.42;;;;;;;19.43;60.64;101652.09;5072064;28;20091;-74
2022/07/19 04:27:48;;;;;;;6.60;3.40;;;;;;;19.51;60.23;101649.84;5070725;28;20041;-74
2022/07/19 04:30:15;;;;;;;4.50;3.28;;;;;;;19.58;60.12;101650.38;5070335;28;20107;-76
2022/07/19 04:32:43;;;;;;;7.80;3.30;;;;;;;19.67;60.04;101649.88;5071865;28;20037;-73
2022/07/19 04:35:15;;;;;;;7.13;3.58;;;;;;;19.79;59.71;101655.47;5065657;28;20065;-75
2022/07/19 04:37:43;;;;;;;10.98;3.75;;;;;;;19.85;59.47;101650.69;5069260;28;20049;-73
2022/07/19 04:40:12;;;;;;;6.40;3.53;;;;;;;19.95;59.32;101661.69;5070663;28;20910;-74
2022/07/19 04:42:39;;;;;;;9.15;3.80;;;;;;;20.01;59.13;101657.81;5069531;28;20578;-74
2022/07/19 04:45:07;;;;;;;19.00;4.03;;;;;;;20.08;58.76;101658.34;5069667;28;20044;-75
2022/07/19 04:47:34;;;;;;;8.93;3.65;;;;;;;20.21;58.75;101661.16;5070080;28;20037;-74
2022/07/19 04:50:01;;;;;;;8.57;4.15;;;;;;;20.42;58.54;101656.38;5072580;28;20429;-73
2022/07/19 04:52:29;;;;;;;11.85;3.83;;;;;;;20.64;58.15;101648.78;5071944;28;20072;-73
2022/07/19 04:54:56;;;;;;;13.73;4.60;;;;;;;20.83;57.15;101646.81;5071179;28;20116;-73
2022/07/19 04:57:23;;;;;;;8.77;4.55;;;;;;;20.96;56.83;101642.44;5072520;28;20850;-73
2022/07/19 04:59:51;;;;;;;11.18;4.47;;;;;;;21.05;56.43;101643.69;5073726;28;20049;-74
2022/07/19 05:02:18;;;;;;;10.02;3.90;;;;;;;21.15;56.16;101638.59;5072037;28;20108;-73
2022/07/19 05:04:45;;;;;;;11.40;4.28;;;;;;;21.23;55.57;101637.19;5070800;28;20041;-74
2022/07/19 05:07:12;;;;;;;12.20;4.32;;;;;;;21.32;55.50;101637.56;5072616;28;20037;-73
2022/07/19 05:09:40;;;;;;;7.20;4.50;;;;;;;21.40;55.35;101632.56;5071437;28;20500;-72
2022/07/19 05:12:09;;;;;;;10.77;4.63;;;;;;;21.50;54.87;101630.16;5075369;28;20125;-73
2022/07/19 05:14:36;;;;;;;8.25;4.32;;;;;;;21.60;54.93;101633.13;5071202;28;20106;-71
2022/07/19 05:17:03;;;;;;;10.25;5.03;;;;;;;21.69;54.40;101635.22;5052531;28;20058;-72
2022/07/19 05:19:30;;;;;;;8.93;4.30;;;;;;;21.81;54.17;101633.56;5066513;28;20130;-72
2022/07/19 05:21:57;;;;;;;11.95;4.50;;;;;;;21.92;53.79;101631.03;5074740;28;20538;-73
2022/07/19 05:24:25;;;;;;;9.82;4.53;;;;;;;22.24;52.87;101629.84;5072623;28;20045;-72
2022/07/19 05:26:52;;;;;;;11.27;5.13;;;;;;;22.31;52.79;101640.06;5071277;28;20045;-73
2022/07/19 05:29:19;;;;;;;10.32;4.40;;;;;;;22.39;52.52;101636.00;5071294;28;20080;-71
2022/07/19 05:31:46;;;;;;;8.73;3.78;;;;;;;22.51;52.10;101639.69;5087089;28;20098;-72
2022/07/19 05:34:14;;;;;;;8.65;4.25;;;;;;;22.69;52.25;101641.09;5071554;28;20041;-72
2022/07/19 05:36:42;;;;;;;9.48;4.65;;;;;;;23.07;51.21;101648.34;5073307;28;20128;-72
2022/07/19 05:39:09;;;;;;;13.82;4.63;;;;;;;24.27;48.92;101640.59;5073073;28;20073;-72
2022/07/19 05:41:36;;;;;;;10.18;4.22;;;;;;;26.23;44.70;101635.91;5075368;28;20094;-72
2022/07/19 05:44:04;;;;;;;13.00;4.22;;;;;;;27.59;41.92;101635.81;5072141;28;20041;-72
2022/07/19 05:46:32;;;;;;;14.35;4.15;;;;;;;28.82;39.40;101629.94;5066089;28;20037;-73
2022/07/19 05:48:59;;;;;;;8.13;3.83;;;;;;;29.79;37.22;101630.47;5087590;28;20065;-74
2022/07/19 05:51:26;;;;;;;9.15;3.88;;;;;;;30.51;35.98;101626.84;5072600;28;20044;-73
2022/07/19 05:53:53;;;;;;;14.25;4.53;;;;;;;31.24;34.80;101624.75;5069148;28;20041;-74
2022/07/19 05:56:21;;;;;;;14.70;4.07;;;;;;;31.88;32.91;101633.31;5065181;28;20047;-72
2022/07/19 05:58:48;;;;;;;16.90;4.65;;;;;;;32.40;32.21;101628.56;5071166;28;20068;-72
2022/07/19 06:01:18;;;;;;;8.90;4.20;;;;;;;32.91;31.29;101628.28;5069668;28;20076;-73
2022/07/19 06:03:52;;;;;;;10.95;4.03;;;;;;;33.44;30.47;101636.78;5070599;28;20053;-73
2022/07/19 06:06:31;;;;;;;18.50;4.28;;;;;;;33.77;29.63;101635.75;5071159;28;20530;-73
2022/07/19 06:09:00;;;;;;;8.85;3.53;;;;;;;33.99;28.90;101636.81;5069337;28;20045;-73
2022/07/19 06:11:28;;;;;;;6.90;3.40;;;;;;;34.07;28.66;101638.63;5052066;28;20050;-72
2022/07/19 06:13:55;;;;;;;6.20;3.65;;;;;;;34.07;28.18;101641.38;5089012;28;20037;-72
2022/07/19 06:16:23;;;;;;;7.63;4.05;;;;;;;33.57;28.57;101630.75;5079596;28;20835;-72
2022/07/19 06:18:51;;;;;;;9.23;3.92;;;;;;;32.18;30.69;101643.69;5086646;28;20495;-72
2022/07/19 06:21:20;;;;;;;8.52;3.58;;;;;;;30.29;33.47;101634.50;5079830;28;20098;-73
2022/07/19 06:23:48;;;;;;;8.63;3.60;;;;;;;28.96;36.06;101648.47;5080412;28;20187;-72
2022/07/19 06:26:16;;;;;;;8.40;3.70;;;;;;;28.05;37.99;101646.97;5072754;28;20072;-72
2022/07/19 06:28:44;;;;;;;7.10;3.22;;;;;;;27.44;39.29;101653.41;5069157;28;20033;-73
2022/07/19 06:31:13;;;;;;;13.88;4.20;;;;;;;26.92;40.23;101648.06;5071302;28;20126;-73
2022/07/19 06:33:43;;;;;;;9.38;3.75;;;;;;;26.47;41.21;101647.31;5071617;28;20098;-73
2022/07/19 06:36:11;;;;;;;10.60;4.38;;;;;;;26.20;42.21;101646.00;5071825;28;20473;-73
2022/07/19 06:38:41;;;;;;;8.02;4.00;;;;;;;26.00;42.31;101646.78;5072161;28;20103;-73
2022/07/19 06:41:09;;;;;;;12.75;4.50;;;;;;;25.86;43.38;101643.38;5074732;28;20099;-73
2022/07/19 06:43:38;;;;;;;7.10;4.15;;;;;;;25.79;43.60;101644.88;5069484;28;20095;-73
2022/07/19 06:46:07;;;;;;;27.48;4.95;;;;;;;25.70;43.82;101646.50;5072102;28;20069;-72
2022/07/19 06:48:36;;;;;;;11.55;4.47;;;;;;;25.68;44.42;101647.59;5066894;28;20488;-73
2022/07/19 06:51:06;;;;;;;8.52;4.57;;;;;;;25.67;44.70;101635.09;5068409;28;20090;-76
2022/07/19 06:53:34;;;;;;;8.57;4.47;;;;;;;25.64;44.64;101643.47;5068054;28;20041;-73
2022/07/19 06:56:02;;;;;;;12.10;4.88;;;;;;;25.65;45.04;101639.75;5067258;28;20045;-72
2022/07/19 06:58:29;;;;;;;12.93;5.00;;;;;;;25.67;45.49;101643.19;5056056;28;20115;-72
2022/07/19 07:01:00;;;;;;;8.48;4.82;;;;;;;25.71;45.48;101640.09;5068530;28;20053;-73
2022/07/19 07:03:27;;;;;;;17.77;4.85;;;;;;;25.73;45.66;101640.84;5068231;28;20049;-74
2022/07/19 07:05:55;;;;;;;9.32;4.57;;;;;;;25.79;45.46;101642.19;5068267;28;20505;-72
2022/07/19 07:08:22;;;;;;;14.00;4.75;;;;;;;25.85;45.87;101646.22;5066035;28;20033;-73
2022/07/19 07:10:49;;;;;;;11.82;4.53;;;;;;;25.94;45.62;101639.19;5067994;28;20117;-72
2022/07/19 07:13:16;;;;;;;17.02;4.78;;;;;;;26.01;45.79;101637.69;5065972;28;20542;-72
2022/07/19 07:15:43;;;;;;;16.83;4.20;;;;;;;26.08;45.87;101638.03;5067795;28;20041;-74
2022/07/19 07:18:14;;;;;;;16.92;3.92;;;;;;;26.22;45.64;101634.19;5065966;28;20164;-74
2022/07/19 07:20:41;;;;;;;8.40;3.60;;;;;;;26.31;45.42;101636.13;5068806;28;20072;-73
2022/07/19 07:23:10;;;;;;;10.52;4.03;;;;;;;26.43;44.77;101636.91;5067287;28;20065;-72
2022/07/19 07:25:37;;;;;;;10.13;3.40;;;;;;;26.53;44.95;101645.09;5065783;28;20060;-71
2022/07/19 07:28:05;;;;;;;11.90;3.45;;;;;;;26.64;44.17;101639.63;5064524;28;20053;-72
2022/07/19 07:30:32;;;;;;;9.35;3.63;;;;;;;26.72;44.12;101642.50;5072778;28;20037;-74
2022/07/19 07:33:01;;;;;;;13.63;3.83;;;;;;;26.84;44.54;101639.78;5070530;28;20124;-74
2022/07/19 07:35:28;;;;;;;7.30;3.00;;;;;;;26.97;44.13;101634.97;5069873;28;20094;-74
2022/07/19 07:37:55;;;;;;;17.08;3.70;;;;;;;27.09;43.78;101636.59;5069348;28;20127;-74
2022/07/19 07:40:23;;;;;;;11.27;3.22;;;;;;;27.20;43.66;101637.50;5072999;28;20049;-72
2022/07/19 07:42:50;;;;;;;11.48;3.80;;;;;;;27.31;43.80;101639.25;5072775;28;20037;-73
2022/07/19 07:45:17;;;;;;;7.05;3.08;;;;;;;27.45;43.37;101629.94;5073234;28;20091;-72
2022/07/19 07:47:45;;;;;;;11.75;3.05;;;;;;;27.59;43.32;101630.41;5067148;28;20048;-72
2022/07/19 07:50:12;;;;;;;7.30;2.78;;;;;;;27.76;42.46;101637.97;5068086;28;20076;-73
2022/07/19 07:52:40;;;;;;;13.73;3.20;;;;;;;27.87;42.48;101633.28;5073860;28;20067;-73
2022/07/19 07:55:08;;;;;;;7.53;2.80;;;;;;;27.99;42.06;101628.56;5072235;28;20041;-72
2022/07/19 07:57:55;;;;;;;9.43;3.13;;;;;;;28.10;41.78;101624.91;5069467;28;20037;-73
2022/07/19 08:00:23;;;;;;;7.72;2.47;;;;;;;28.24;41.91;101620.03;5068963;28;20051;-73
2022/07/19 08:02:50;;;;;;;7.90;2.70;;;;;;;28.38;41.39;101624.19;5069631;28;20041;-74
2022/07/19 08:05:24;;;;;;;6.63;2.42;;;;;;;28.52;40.32;101611.03;5072631;28;20063;-72
2022/07/19 08:07:51;;;;;;;9.75;2.90;;;;;;;28.62;39.79;101612.84;5069697;28;20041;-73
2022/07/19 08:10:23;;;;;;;11.88;3.13;;;;;;;28.76;40.22;101614.25;5070070;28;20140;-73
2022/07/19 08:12:51;;;;;;;16.13;3.25;;;;;;;28.87;40.69;101615.94;5087485;28;20044;-72
2022/07/19 08:15:20;;;;;;;10.57;2.83;;;;;;;29.00;40.60;101604.75;5070490;28;20033;-73
2022/07/19 08:17:48;;;;;;;11.27;3.03;;;;;;;29.12;40.64;101607.13;5069518;28;20111;-73
2022/07/19 08:20:16;;;;;;;8.63;2.80;;;;;;;29.24;40.58;101606.94;5070550;28;20099;-73
2022/07/19 08:22:43;;;;;;;8.07;2.67;;;;;;;29.37;39.88;101606.59;5070264;28;20586;-73
2022/07/19 08:25:14;;;;;;;6.32;2.75;;;;;;;29.47;39.89;101606.50;5070315;28;20103;-73
2022/07/19 08:27:43;;;;;;;12.07;2.65;;;;;;;29.58;38.29;101603.59;5069815;28;20045;-73
2022/07/19 08:30:12;;;;;;;8.52;2.60;;;;;;;29.65;38.90;101610.13;5087930;28;20095;-73
2022/07/19 08:32:40;;;;;;;11.93;2.63;;;;;;;29.79;38.83;101605.16;5069261;28;20044;-73
2022/07/19 08:35:11;;;;;;;7.97;2.47;;;;;;;29.91;38.09;101604.75;5068143;28;20048;-71
2022/07/19 08:37:39;;;;;;;6.30;2.47;;;;;;;30.03;37.66;101601.84;5067939;28;20045;-71
2022/07/19 08:40:07;;;;;;;6.97;2.40;;;;;;;30.18;37.71;101603.00;5071624;28;20117;-72
2022/07/19 08:42:35;;;;;;;8.40;2.30;;;;;;;30.28;36.64;101602.03;5073321;28;20047;-72
2022/07/19 08:45:07;;;;;;;7.10;2.75;;;;;;;30.37;37.29;101601.94;5068746;28;20986;-71
2022/07/19 08:47:38;;;;;;;6.10;2.60;;;;;;;30.52;36.94;101598.63;5068576;28;20126;-73
2022/07/19 08:50:11;;;;;;;7.13;2.38;;;;;;;30.68;37.05;101601.47;5070946;28;20107;-73
2022/07/19 08:52:38;;;;;;;17.20;2.72;;;;;;;30.85;36.96;101596.16;5054628;27;20050;-72
2022/07/19 08:55:06;;;;;;;7.43;2.47;;;;;;;30.98;35.73;101595.69;5056455;28;20042;-72
2022/07/19 09:00:34;;;;;;;5.20;2.28;;;;;;;31.27;35.05;101586.28;5022034;28;20057;-71
2022/07/19 09:03:05;;;;;;;6.85;2.10;;;;;;;31.36;35.08;101589.91;5059793;28;20067;-72
2022/07/19 09:05:34;;;;;;;5.78;2.50;;;;;;;31.45;35.12;101588.91;5052727;28;20042;-71
2022/07/19 09:08:08;;;;;;;5.90;2.28;;;;;;;31.58;34.49;101588.41;5051001;28;20898;-71
2022/07/19 09:10:44;;;;;;;8.57;2.03;;;;;;;31.67;34.51;101587.41;5052760;28;20053;-71
2022/07/19 09:13:15;;;;;;;4.93;2.03;;;;;;;31.82;34.56;101584.06;5052428;28;20029;-71
2022/07/19 09:15:52;;;;;;;4.45;2.20;;;;;;;32.00;33.63;101576.56;5049034;28;20092;-71
2022/07/19 09:18:22;;;;;;;7.97;2.60;;;;;;;32.14;33.79;101579.63;5049782;28;20092;-71
2022/07/19 09:20:56;;;;;;;9.43;2.90;;;;;;;32.23;33.81;101570.41;5050648;28;20049;-72
2022/07/19 09:23:24;;;;;;;6.40;2.13;;;;;;;32.39;33.19;101579.63;5050746;28;20052;-71
2022/07/19 09:25:55;;;;;;;4.75;2.28;;;;;;;32.55;32.97;101573.28;5064064;28;20041;-72
2022/07/19 09:28:25;;;;;;;5.93;2.13;;;;;;;32.65;31.78;101566.59;5050708;28;20043;-72
2022/07/19 09:30:55;;;;;;;11.77;2.15;;;;;;;32.71;32.36;101567.78;5046962;28;20943;-72
2022/07/19 09:33:27;;;;;;;7.63;2.33;;;;;;;32.86;31.82;101564.31;5050281;28;20048;-71
2022/07/19 09:36:11;;;;;;;9.10;2.28;;;;;;;32.92;30.65;101566.34;5050484;28;20092;-71
2022/07/19 09:38:42;;;;;;;6.35;1.90;;;;;;;33.03;30.81;101560.50;5051971;28;20551;-71
2022/07/19 09:41:12;;;;;;;4.20;2.03;;;;;;;33.21;30.25;101562.13;5059719;28;20434;-71
2022/07/19 09:44:02;;;;;;;5.40;1.92;;;;;;;33.34;29.39;101558.84;5050909;28;20045;-71
2022/07/19 09:46:39;;;;;;;8.52;2.08;;;;;;;33.44;26.54;101560.28;5054131;28;20123;-71
2022/07/19 09:49:09;;;;;;;10.63;2.22;;;;;;;33.49;27.65;101557.00;5057927;28;20091;-70
2022/07/19 09:51:40;;;;;;;5.80;2.20;;;;;;;33.54;27.73;101551.00;5052943;28;20117;-71
2022/07/19 09:54:11;;;;;;;9.65;2.40;;;;;;;33.62;27.63;101556.44;5053502;28;20038;-72
2022/07/19 09:56:43;;;;;;;7.88;2.08;;;;;;;33.74;27.67;101551.38;5055158;28;20053;-72
2022/07/19 09:59:11;;;;;;;19.45;3.22;;;;;;;33.88;27.65;101547.00;5053005;28;20044;-71
2022/07/19 10:01:40;;;;;;;11.38;2.20;;;;;;;34.01;26.48;101551.84;5068989;28;20052;-72
2022/07/19 10:04:18;;;;;;;11.45;2.10;;;;;;;34.03;25.85;101545.19;5052121;28;20046;-72
2022/07/19 10:06:48;;;;;;;11.63;2.75;;;;;;;34.07;25.72;101553.84;5061187;28;20068;-71
2022/07/19 10:09:20;;;;;;;4.15;2.20;;;;;;;34.17;24.51;101553.56;5059124;28;20041;-71
2022/07/19 10:12:03;;;;;;;12.60;2.47;;;;;;;34.27;26.01;101553.31;5053006;28;20041;-71
2022/07/19 10:14:30;;;;;;;10.57;2.30;;;;;;;34.37;25.80;101552.00;5067683;28;20043;-71
2022/07/19 10:17:08;;;;;;;9.90;2.42;;;;;;;34.40;25.95;101547.22;5045053;28;20496;-71
2022/07/19 10:19:44;;;;;;;12.23;2.10;;;;;;;34.48;25.69;101552.59;5062570;28;20499;-70
2022/07/19 10:22:16;;;;;;;10.25;2.80;;;;;;;34.56;25.58;101544.28;5052066;28;20091;-70
2022/07/19 10:25:12;;;;;;;11.80;2.40;;;;;;;34.66;25.45;101546.75;5054547;28;20037;-70
2022/07/19 10:27:43;;;;;;;10.60;2.33;;;;;;;34.76;24.89;101546.44;5053378;28;20041;-71
2022/07/19 10:30:10;;;;;;;5.22;2.05;;;;;;;34.82;25.30;101549.25;5049046;28;20058;-71
2022/07/19 10:32:43;;;;;;;5.45;1.83;;;;;;;34.93;25.00;101542.50;5059929;28;20844;-71
2022/07/19 10:35:25;;;;;;;4.70;1.88;;;;;;;35.02;24.70;101543.22;5043548;28;20085;-71
2022/07/19 10:38:07;;;;;;;4.85;1.90;;;;;;;35.05;25.22;101537.38;5047511;28;20186;-71
2022/07/19 10:40:45;;;;;;;10.38;2.40;;;;;;;35.14;25.00;101538.94;5047679;28;20042;-71
2022/07/19 10:43:18;;;;;;;11.40;2.42;;;;;;;35.25;25.08;101529.38;5058942;28;20447;-71
2022/07/19 10:45:57;;;;;;;10.57;2.20;;;;;;;35.37;24.49;101528.84;5053929;28;20073;-71
2022/07/19 10:48:45;;;;;;;6.22;1.83;;;;;;;35.50;24.75;101523.53;5050078;28;20041;-72
2022/07/19 10:51:39;;;;;;;3.10;2.33;;;;;;;35.61;24.26;101513.97;5057334;28;20582;-71
2022/07/19 10:54:07;;;;;;;9.18;2.30;;;;;;;35.71;24.40;101522.69;5051017;28;20132;-73
2022/07/19 10:56:37;;;;;;;10.00;2.42;;;;;;;35.81;24.31;101514.09;5062048;28;20037;-73
2022/07/19 10:59:31;;;;;;;13.02;2.80;;;;;;;35.99;24.11;101516.41;5064279;28;20049;-70
2022/07/19 11:02:02;;;;;;;13.82;2.63;;;;;;;36.08;24.13;101513.50;5068339;28;20820;-72
2022/07/19 11:04:52;;;;;;;12.25;2.60;;;;;;;36.11;24.08;101511.19;5042265;28;20468;-72
2022/07/19 11:07:25;;;;;;;9.07;2.20;;;;;;;36.18;23.70;101514.00;5050894;28;20077;-72
2022/07/19 11:09:57;;;;;;;3.90;1.70;;;;;;;36.19;22.86;101504.72;5066514;28;20048;-70
2022/07/19 11:12:36;;;;;;;12.02;2.60;;;;;;;36.28;23.42;101502.63;5070745;28;20610;-70
2022/07/19 11:15:09;;;;;;;7.32;2.05;;;;;;;36.36;23.14;101499.75;5067981;28;20063;-73
2022/07/19 11:17:54;;;;;;;8.43;2.20;;;;;;;36.47;23.43;101495.59;5057321;28;20056;-73
2022/07/19 11:20:25;;;;;;;8.45;2.05;;;;;;;36.62;22.12;101492.72;5062798;28;20416;-70
2022/07/19 11:22:57;;;;;;;3.60;1.75;;;;;;;36.71;22.11;101494.22;5063185;28;20575;-72
2022/07/19 11:25:35;;;;;;;15.35;2.00;;;;;;;36.83;21.95;101481.59;5054612;28;20059;-70
2022/07/19 11:28:03;;;;;;;8.40;2.60;;;;;;;36.96;21.84;101482.72;5052407;28;20132;-71
2022/07/19 11:30:35;;;;;;;10.07;2.13;;;;;;;37.16;21.46;101487.44;5066297;28;20104;-72
2022/07/19 11:33:05;;;;;;;7.25;1.88;;;;;;;37.27;20.06;101476.66;5070012;28;20452;-71
2022/07/19 11:35:39;;;;;;;4.10;1.70;;;;;;;37.34;19.29;101471.16;5057411;28;20042;-70